Latest Conditions
At L.F.Wade Int. Airport
Recorded at 6:55 pm
Showers
Temp.: 
24°C/76°F
Humidity: 
91%
Wind: 
WSW 18KT
or 21mph
UV Index: 
0
Island Observations
 
Observations
Thursday, June 20, 2019

Observations are in local time and taken at least once an hour, or upon the start and end of specified events such as showers and thunderstorms.

Time Sky / Weather Wind Speed/Gusts Temp. R.H. Pressure
     knots (mph)  °C (°F)  %  mb / "Hg
 18:55 Overcast Showers WSW 18/0 (21/0) 24(76) 91 1017 / 30.04
 18:43 Overcast Showers WSW 18/0 (21/0) 25(78) 91 1017 / 30.04
 18:31 Overcast Showers WSW 19/0 (22/0) 26(78) 87 1017 / 30.04
 18:04 Overcast Showers SW 19/0 (22/0) 26(78) 87 1017 / 30.03
 17:55 Overcast Showers SW 20/0 (23/0) 26(78) 87 1017 / 30.04
 17:41 Overcast  SW 16/0 (18/0) 26(79) 87 1017 / 30.04
 17:15 Overcast Showers WSW 17/0 (20/0) 26(78) 88 1017 / 30.04
 17:03 Mostly Cloudy Showers SW 19/0 (22/0) 26(78) 88 1017 / 30.04
 16:55 Overcast Showers SW 19/0 (22/0) 26(78) 87 1018 / 30.05
 16:01 Overcast  WSW 17/0 (20/0) 25(77) 89 1018 / 30.06
 15:55 Overcast Showers SW 19/0 (22/0) 25(76) 91 1018 / 30.06
 15:26 Overcast Showers SW 20/0 (23/0) 24(75) 92 1018 / 30.07
 15:03 Overcast Showers SW 25/35 (29/40) 24(74) 92 1019 / 30.08
 14:55 Overcast Showers SW 19/0 (22/0) 26(78) 86 1018 / 30.07
 13:55 Overcast Rain SW 21/0 (24/0) 26(79) 80 1019 / 30.08
 12:55 Overcast Rain SW 24/0 (28/0) 25(78) 86 1019 / 30.08
 12:31 Overcast Rain SW 23/0 (26/0) 26(78) 87 1019 / 30.09
 12:17 Overcast  SW 22/0 (25/0) 26(78) 86 1019 / 30.09
 11:55 Overcast Thunderstorm SW 21/0 (24/0) 26(78) 86 1019 / 30.09
 11:46 Overcast  SW 20/0 (23/0) 25(77) 87 1019 / 30.09
 11:26 Overcast Showers WSW 21/0 (24/0) 24(76) 90 1019 / 30.09
 11:16 Overcast Showers WSW 20/0 (23/0) 24(75) 93 1019 / 30.09
 11:05 Overcast Showers SW 19/0 (22/0) 24(76) 88 1019 / 30.09
 10:55 Overcast Showers SSW 19/0 (22/0) 27(81) 86 1019 / 30.08
 10:06 Mostly Cloudy  SSW 20/0 (23/0) 27(81) 84 1019 / 30.08
 09:55 Mostly Cloudy  SSW 19/0 (22/0) 28(82) 82 1018 / 30.07
 08:55 Mostly Cloudy  SSW 20/0 (23/0) 27(81) 85 1019 / 30.08
 07:55 Mostly Cloudy  SSW 19/0 (22/0) 27(80) 86 1018 / 30.07
 06:55 Mostly Cloudy  SSW 18/0 (21/0) 26(80) 87 1018 / 30.07
 05:55 Partly Cloudy Showers SSW 15/0 (17/0) 26(79) 86 1018 / 30.07
 04:55 Partly Cloudy Showers SSW 16/0 (18/0) 26(79) 89 1018 / 30.07
 03:55 Partly Cloudy Showers SSW 19/0 (22/0) 26(79) 87 1018 / 30.07
 02:55 Partly Cloudy  SSW 17/0 (20/0) 26(79) 87 1019 / 30.08
 01:55 Mostly Cloudy  SSW 16/0 (18/0) 26(78) 85 1019 / 30.09
 00:55 Mostly Cloudy  SSW 15/0 (17/0) 25(77) 86 1020 / 30.11
 00:13 Mostly Cloudy Showers SW 14/0 (16/0) 25(77) 85 1020 / 30.12
 23:55 Mostly Cloudy Showers SSW 13/0 (15/0) 25(77) 86 1020 / 30.12
 23:06 Mostly Cloudy Showers SW 15/0 (17/0) 25(77) 87 1020 / 30.13
 22:55 Mostly Cloudy Showers SSW 17/0 (20/0) 25(78) 84 1020 / 30.13
 21:55 Mostly Cloudy Showers S 10/0 (12/0) 26(80) 82 1020 / 30.12
 21:42 Mostly Cloudy Showers S 16/27 (18/31) 26(79) 80 1020 / 30.13
 21:36 Mostly Cloudy Showers S 14/24 (16/28) 26(79) 83 1020 / 30.13
 20:55 Mostly Cloudy  S 12/0 (14/0) 27(80) 85 1020 / 30.12
 19:55 Mostly Cloudy  SSW 11/0 (13/0) 27(81) 80 1020 / 30.12
 18:55 Partly Cloudy  SSW 12/0 (14/0) 28(82) 79 1020 / 30.11
 17:55 Few Clouds  SSW 13/0 (15/0) 28(83) 77 1020 / 30.12
 16:55 Few Clouds  SSW 12/0 (14/0) 29(84) 74 1020 / 30.12
 15:55 Few Clouds  SSW 12/0 (14/0) 29(84) 71 1020 / 30.12
 14:55 Few Clouds  SSW 12/0 (14/0) 29(84) 75 1021 / 30.14
 13:55 Few Clouds  S 12/0 (14/0) 28(83) 73 1021 / 30.14
 12:55 Few Clouds  SSW 12/0 (14/0) 28(83) 75 1021 / 30.15
 11:55 Few Clouds  SSW 11/0 (13/0) 28(82) 72 1021 / 30.16
 10:55 Few Clouds  SSW 10/0 (12/0) 28(82) 73 1021 / 30.16
 09:55 Few Clouds  SW 8/0 (9/0) 27(81) 74 1021 / 30.16
 08:55 Few Clouds  SW 7/0 (8/0) 27(81) 76 1021 / 30.16
 07:55 Few Clouds  SW 7/0 (8/0) 26(79) 83 1021 / 30.16
 06:55 Few Clouds  SW 7/0 (8/0) 25(78) 86 1021 / 30.16
 05:55 Few Clouds  SW 8/0 (9/0) 26(78) 85 1021 / 30.16
 04:55 Few Clouds  SW 8/0 (9/0) 26(79) 81 1021 / 30.15
 03:55 Few Clouds  WSW 9/0 (10/0) 26(79) 83 1021 / 30.15
 02:55 Few Clouds  SW 9/0 (10/0) 26(79) 82 1021 / 30.15
 01:55 Few Clouds  SW 10/0 (12/0) 26(78) 85 1022 / 30.17
 00:55 Few Clouds Showers SW 8/0 (9/0) 26(79) 86 1022 / 30.18
 23:55 Few Clouds Showers SW 8/0 (9/0) 26(79) 86 1022 / 30.19
 22:55 Few Clouds  SW 8/0 (9/0) 26(79) 84 1022 / 30.18
 21:55 Few Clouds  SW 7/0 (8/0) 26(79) 83 1022 / 30.17
 20:55 Few Clouds  WSW 6/0 (7/0) 26(80) 80 1021 / 30.16
 19:55 Few Clouds  W 6/0 (7/0) 27(80) 81 1021 / 30.16
 18:55 Few Clouds Showers W 9/0 (10/0) 28(82) 77 1021 / 30.16
 17:55 Mostly Cloudy Showers WSW 7/0 (8/0) 28(82) 77 1021 / 30.16
 17:31 Mostly Cloudy Showers W 8/0 (9/0) 28(82) 73 1022 / 30.17
 17:20 Mostly Cloudy Showers W 11/0 (13/0) 27(81) 79 1022 / 30.17
 17:06 Mostly Cloudy Thunderstorm W 8/0 (9/0) 27(81) 79 1022 / 30.17
 16:55 Mostly Cloudy Thunderstorm W 8/0 (9/0) 28(83) 75 1022 / 30.17
 16:47 Mostly Cloudy Thunderstorm W 8/0 (9/0) 28(83) 76 1022 / 30.17
 15:55 Partly Cloudy Showers W 8/0 (9/0) 29(83) 75 1022 / 30.18
 14:55 Partly Cloudy Showers W 9/0 (10/0) 29(84) 74 1022 / 30.19
 13:55 Few Clouds Showers W 9/0 (10/0) 28(83) 76 1023 / 30.20
 12:55 Few Clouds Showers W 9/0 (10/0) 28(82) 77 1023 / 30.20
 11:55 Few Clouds  W 9/0 (10/0) 28(82) 74 1023 / 30.21
 10:55 Few Clouds  WSW 5/0 (6/0) 28(82) 77 1023 / 30.20
 09:55 Partly Cloudy  W 6/0 (7/0) 27(81) 79 1023 / 30.20
 08:55 Partly Cloudy  W 6/0 (7/0) 27(80) 81 1023 / 30.21
 07:55 Partly Cloudy  W 6/0 (7/0) 26(80) 84 1023 / 30.20
 06:55 Few Clouds  W 7/0 (8/0) 26(78) 85 1022 / 30.19
 05:55 Partly Cloudy  W 7/0 (8/0) 26(78) 85 1022 / 30.18
 04:55 Partly Cloudy Showers W 8/0 (9/0) 26(78) 86 1022 / 30.18
 03:55 Partly Cloudy  WSW 8/0 (9/0) 26(79) 87 1022 / 30.17
 02:55 Few Clouds  SW 9/0 (10/0) 26(79) 82 1022 / 30.18
 01:55 Few Clouds  SW 8/0 (9/0) 26(78) 88 1023 / 30.20
 00:55 Few Clouds  SW 9/0 (10/0) 26(78) 88 1023 / 30.20
 23:55 Few Clouds Showers SW 9/0 (10/0) 26(78) 89 1023 / 30.21
 22:55 Partly Cloudy  SSW 9/0 (10/0) 26(79) 87 1023 / 30.21
 21:55 Partly Cloudy  SW 8/0 (9/0) 26(79) 86 1023 / 30.20
 20:55 Mostly Cloudy  SW 8/0 (9/0) 26(79) 83 1023 / 30.20
 19:55 Mostly Cloudy  SW 9/0 (10/0) 26(80) 82 1022 / 30.18
 18:55 Mostly Cloudy  SW 11/0 (13/0) 27(80) 80 1022 / 30.17
 17:55 Mostly Cloudy  SSW 10/0 (12/0) 27(81) 71 1022 / 30.19
 16:55 Partly Cloudy  SW 10/0 (12/0) 28(83) 73 1023 / 30.20
 15:55 Partly Cloudy  SSW 10/0 (12/0) 28(82) 73 1023 / 30.21
Island AWOS